Time;durP1;ratioP1;P1;durP2;ratioP2;P2;SDS_P1;SDS_P2;PMS_P1;PMS_P2;Temp;Humidity;BMP_temperature;BMP_pressure;BME280_temperature;BME280_humidity;BME280_pressure;Samples;Min_cycle;Max_cycle;Signal;HPM_P1;HPM_P2
2021/01/25 00:01:10;;;;;;;20.17;10.13;;;;;;;0.53;87.05;98822.08;4716481;61;1134223;-86
2021/01/25 00:06:16;;;;;;;20.30;9.63;;;;;;;0.53;87.04;98820.31;4717602;61;1136978;-86
2021/01/25 00:11:21;;;;;;;18.33;7.50;;;;;;;0.53;87.02;98815.11;4705226;61;1134329;-86
2021/01/25 00:16:27;;;;;;;15.40;9.65;;;;;;;0.49;87.17;98814.09;4720004;61;1134558;-86
2021/01/25 00:21:33;;;;;;;11.90;5.33;;;;;;;0.47;87.21;98815.95;4672449;61;1134617;-86
2021/01/25 00:26:38;;;;;;;21.87;10.83;;;;;;;0.46;87.22;98827.31;4588672;62;1134940;-86
2021/01/25 00:31:44;;;;;;;19.67;10.13;;;;;;;0.44;87.10;98832.61;4541478;63;1136548;-87
2021/01/25 00:36:49;;;;;;;19.75;8.33;;;;;;;0.45;87.11;98839.48;4718623;61;1136406;-86
2021/01/25 00:41:55;;;;;;;13.30;6.83;;;;;;;0.48;87.12;98843.16;4763927;61;1134209;-86
2021/01/25 00:47:00;;;;;;;13.88;7.53;;;;;;;0.51;87.37;98844.74;4702663;61;1134446;-86
2021/01/25 00:52:07;;;;;;;21.87;10.33;;;;;;;0.50;87.20;98848.27;4559208;63;1134161;-86
2021/01/25 00:57:13;;;;;;;15.30;9.10;;;;;;;0.50;87.08;98850.87;4536281;63;1136380;-87
2021/01/25 01:02:19;;;;;;;18.33;9.47;;;;;;;0.54;87.11;98847.98;4689822;61;1134236;-86
2021/01/25 01:07:25;;;;;;;20.50;11.03;;;;;;;0.56;87.06;98856.53;4789339;61;21122;-87
2021/01/25 01:12:30;;;;;;;18.70;9.80;;;;;;;0.55;87.03;98856.16;4703915;61;1132320;-86
2021/01/25 01:17:36;;;;;;;24.50;12.70;;;;;;;0.54;87.05;98852.36;4718516;61;1134695;-87
2021/01/25 01:22:42;;;;;;;30.20;16.57;;;;;;;0.53;87.08;98859.33;4803484;61;21158;-87
2021/01/25 01:27:47;;;;;;;27.03;13.13;;;;;;;0.55;87.05;98865.73;4731316;61;1132183;-87
2021/01/25 01:32:53;;;;;;;26.37;12.83;;;;;;;0.53;87.09;98872.80;4696586;61;1249731;-86
2021/01/25 01:37:59;;;;;;;10.55;5.37;;;;;;;0.55;87.19;98889.14;4761336;61;1136847;-86
2021/01/25 01:43:05;;;;;;;12.43;6.75;;;;;;;0.53;87.37;98885.34;4689707;61;1135397;-86
2021/01/25 01:48:11;;;;;;;9.57;5.70;;;;;;;0.51;87.53;98893.70;4744268;61;1134168;-86
2021/01/25 01:53:17;;;;;;;9.73;4.67;;;;;;;0.44;87.29;98896.79;4724306;61;1132674;-87
2021/01/25 01:58:24;;;;;;;7.30;4.23;;;;;;;0.38;87.55;98908.39;4704264;61;1133098;-87
2021/01/25 02:03:29;;;;;;;10.63;5.07;;;;;;;0.35;87.66;98920.28;4608826;63;1130167;-87
2021/01/25 02:08:38;;;;;;;11.20;5.17;;;;;;;0.32;87.96;98929.09;4625751;63;21192;-87
2021/01/25 02:13:44;;;;;;;9.13;5.33;;;;;;;0.33;87.73;98924.73;4709462;61;1130312;-87
2021/01/25 02:18:49;;;;;;;9.83;6.50;;;;;;;0.33;87.62;98919.06;4707157;61;1132209;-87
2021/01/25 02:24:31;;;;;;;12.47;6.87;;;;;;;0.36;87.63;98925.85;4710007;61;1140733;-87
2021/01/25 02:29:37;;;;;;;7.83;4.93;;;;;;;0.37;87.66;98921.48;4721474;61;1134274;-87
2021/01/25 02:34:43;;;;;;;7.67;4.00;;;;;;;0.43;87.58;98943.23;4693151;61;1132221;-87
2021/01/25 02:39:52;;;;;;;11.87;6.40;;;;;;;0.44;87.57;98941.84;4702772;61;1132283;-87
2021/01/25 02:44:59;;;;;;;9.00;5.60;;;;;;;0.47;87.49;98948.59;4696560;61;1134799;-86
2021/01/25 02:50:09;;;;;;;8.38;4.67;;;;;;;0.48;87.40;98957.60;4690364;61;1132384;-87
2021/01/25 02:55:15;;;;;;;5.57;3.70;;;;;;;0.45;87.51;98953.91;4697638;61;1132567;-87
2021/01/25 03:00:21;;;;;;;2.87;2.17;;;;;;;0.43;87.61;98947.13;4707355;61;1132124;-87
2021/01/25 03:05:29;;;;;;;8.07;3.93;;;;;;;0.42;87.59;98948.05;4710285;61;1132361;-87
2021/01/25 03:10:35;;;;;;;7.53;4.70;;;;;;;0.40;87.60;98953.34;4708184;61;1132617;-87
2021/01/25 03:15:42;;;;;;;3.83;2.30;;;;;;;0.37;87.55;98947.03;4624727;62;1132095;-87
2021/01/25 03:20:50;;;;;;;7.00;4.83;;;;;;;0.38;87.98;98954.36;4651289;62;1132155;-87
2021/01/25 03:25:57;;;;;;;4.97;3.70;;;;;;;0.37;87.80;98948.80;4636120;61;1132900;-87
2021/01/25 03:31:02;;;;;;;4.47;3.13;;;;;;;0.35;87.75;98952.32;4695162;62;21133;-87
2021/01/25 03:36:08;;;;;;;7.78;5.12;;;;;;;0.34;87.61;98956.31;4609658;62;1128290;-87
2021/01/25 03:41:13;;;;;;;8.80;5.10;;;;;;;0.33;87.65;98963.27;4570696;63;1132840;-87
2021/01/25 03:46:20;;;;;;;6.45;4.62;;;;;;;0.35;87.77;98969.69;4591664;63;1132320;-87
2021/01/25 03:51:25;;;;;;;8.73;5.17;;;;;;;0.35;87.80;98961.88;4588454;62;1132283;-87
2021/01/25 03:56:31;;;;;;;12.00;8.87;;;;;;;0.35;87.83;98961.88;4579136;63;1132668;-86
2021/01/25 04:01:37;;;;;;;10.70;7.03;;;;;;;0.33;87.88;98967.17;4584556;63;1134680;-87
2021/01/25 04:06:44;;;;;;;31.63;20.40;;;;;;;0.33;87.87;98976.73;4581089;63;1134236;-87
2021/01/25 04:11:49;;;;;;;12.33;8.33;;;;;;;0.31;88.42;98983.33;4566610;63;1136422;-87
2021/01/25 04:16:55;;;;;;;5.17;3.70;;;;;;;0.29;88.05;98987.81;4604690;61;1134185;-87
2021/01/25 04:22:01;;;;;;;7.70;3.97;;;;;;;0.28;87.98;98990.04;4556928;63;1132646;-87
2021/01/25 04:27:13;;;;;;;3.53;2.67;;;;;;;0.32;88.00;98992.80;4541702;63;1132697;-87
2021/01/25 04:32:14;;;;;;;7.07;4.50;;;;;;;0.33;87.95;99002.28;4576260;62;1132451;-87
2021/01/25 04:37:20;;;;;;;7.90;4.33;;;;;;;0.37;87.87;99001.64;4738911;61;1132679;-87
2021/01/25 04:42:27;;;;;;;8.80;5.33;;;;;;;0.37;87.82;98996.89;4538782;62;1132126;-85
2021/01/25 04:47:32;;;;;;;17.37;9.00;;;;;;;0.35;87.72;99000.42;4551554;62;1132198;-87
2021/01/25 04:52:39;;;;;;;11.10;6.30;;;;;;;0.37;87.63;99012.50;4558103;63;1134579;-87
2021/01/25 04:57:46;;;;;;;10.80;5.80;;;;;;;0.40;87.58;99017.52;4494486;63;1134546;-88
2021/01/25 05:02:52;;;;;;;9.53;6.60;;;;;;;0.40;87.52;99013.62;4726070;61;1132143;-87
2021/01/25 05:07:57;;;;;;;10.53;6.05;;;;;;;0.44;87.47;99010.76;4700969;61;1132631;-87
2021/01/25 05:13:03;;;;;;;8.13;5.70;;;;;;;0.51;87.41;99013.80;4683199;61;1134496;-87
2021/01/25 05:18:11;;;;;;;8.90;5.23;;;;;;;0.56;87.33;99022.17;4700971;61;1132172;-87
2021/01/25 05:23:18;;;;;;;11.50;6.67;;;;;;;0.60;87.39;99025.81;4681283;61;1132190;-87
2021/01/25 05:28:23;;;;;;;12.07;6.90;;;;;;;0.70;87.22;99037.78;4690302;61;1134259;-87
2021/01/25 05:33:29;;;;;;;12.03;6.37;;;;;;;0.72;87.02;99042.43;4700398;61;1134205;-87
2021/01/25 05:38:35;;;;;;;12.13;7.03;;;;;;;0.66;86.78;99047.53;4707406;61;1134281;-87
2021/01/25 05:43:41;;;;;;;17.53;7.63;;;;;;;0.60;86.72;99049.22;4671064;61;1134352;-87
2021/01/25 05:48:59;;;;;;;3.17;2.27;;;;;;;0.58;86.77;99045.88;4686820;61;1134343;-87
2021/01/25 05:54:05;;;;;;;10.10;5.43;;;;;;;0.55;86.92;99062.95;4763556;61;1130423;-87
2021/01/25 05:59:10;;;;;;;5.65;3.70;;;;;;;0.50;86.81;99063.69;4684619;61;1134283;-86
2021/01/25 06:04:22;;;;;;;8.63;4.97;;;;;;;0.47;86.92;99063.03;4665814;61;1132608;-87
2021/01/25 06:09:52;;;;;;;7.57;4.70;;;;;;;0.45;86.96;99072.71;4550297;63;1132879;-86
2021/01/25 06:15:04;;;;;;;11.07;5.47;;;;;;;0.45;87.02;99078.75;4665392;61;1132142;-87
2021/01/25 06:20:11;;;;;;;15.00;7.57;;;;;;;0.43;87.10;99082.36;4679166;61;1134448;-87
2021/01/25 06:25:17;;;;;;;13.83;7.87;;;;;;;0.43;87.10;99085.80;4670758;61;1134251;-88
2021/01/25 06:30:26;;;;;;;14.03;8.07;;;;;;;0.45;87.04;99089.61;4763408;61;21279;-88
2021/01/25 06:35:33;;;;;;;14.77;8.13;;;;;;;0.46;87.13;99092.59;4775727;61;21126;-88
2021/01/25 06:40:43;;;;;;;24.53;11.37;;;;;;;0.46;87.05;99088.20;4784928;61;21168;-88
2021/01/25 06:45:49;;;;;;;13.97;7.87;;;;;;;0.48;86.99;99103.25;4764369;61;1132232;-88
2021/01/25 06:50:54;;;;;;;13.73;8.60;;;;;;;0.53;87.00;99113.39;4690631;61;1134697;-89
2021/01/25 06:56:01;;;;;;;15.00;7.77;;;;;;;0.51;87.04;99119.98;4729327;61;1134380;-88
2021/01/25 07:01:10;;;;;;;29.48;13.78;;;;;;;0.53;86.89;99129.84;4679086;61;1134464;-88
2021/01/25 07:06:17;;;;;;;92.50;36.57;;;;;;;0.54;86.91;99138.02;4717871;61;1136420;-89
2021/01/25 07:11:27;;;;;;;30.80;14.90;;;;;;;0.60;86.95;99152.44;4789657;61;21207;-88
2021/01/25 07:16:35;;;;;;;31.62;14.18;;;;;;;0.57;86.87;99153.45;4742794;61;1132388;-88
2021/01/25 07:21:43;;;;;;;26.23;13.23;;;;;;;0.58;86.87;99156.43;4647759;61;1136622;-88
2021/01/25 07:26:52;;;;;;;26.17;14.93;;;;;;;0.59;86.82;99167.67;4713527;61;1136282;-88
2021/01/25 07:31:59;;;;;;;25.83;12.20;;;;;;;0.59;86.96;99174.17;4795313;61;21161;-88
2021/01/25 07:37:05;;;;;;;31.60;15.30;;;;;;;0.60;86.87;99181.06;4722372;61;1132354;-88
2021/01/25 07:42:10;;;;;;;27.37;14.47;;;;;;;0.63;86.85;99179.09;4699627;61;1137077;-89
2021/01/25 07:47:22;;;;;;;45.50;19.87;;;;;;;0.62;86.93;99180.48;4706465;61;1137085;-88
2021/01/25 07:52:27;;;;;;;35.37;14.70;;;;;;;0.64;86.94;99189.88;4678901;61;1136287;-88
2021/01/25 07:57:33;;;;;;;80.37;23.33;;;;;;;0.74;87.03;99198.47;4694641;61;1136304;-87
2021/01/25 08:02:39;;;;;;;53.23;23.77;;;;;;;0.71;86.83;99195.57;4680510;61;1136540;-86
2021/01/25 08:07:46;;;;;;;93.47;32.20;;;;;;;0.72;86.88;99202.45;4676822;61;1136811;-87
2021/01/25 08:12:52;;;;;;;81.70;27.40;;;;;;;0.79;86.84;99207.66;4684121;61;1136603;-87
2021/01/25 08:18:04;;;;;;;83.90;29.65;;;;;;;0.80;86.74;99205.89;4700421;61;1136671;-87
2021/01/25 08:23:14;;;;;;;56.57;22.40;;;;;;;0.78;86.79;99213.78;4682390;61;1136565;-88
2021/01/25 08:28:23;;;;;;;26.20;13.37;;;;;;;0.79;86.62;99221.97;4679712;61;1136565;-87
2021/01/25 08:33:35;;;;;;;32.98;15.40;;;;;;;0.79;86.68;99222.43;4711149;61;1136749;-88
2021/01/25 08:38:44;;;;;;;31.83;14.13;;;;;;;0.72;86.75;99224.57;4680410;61;1136624;-88
2021/01/25 08:44:00;;;;;;;36.93;19.27;;;;;;;0.70;86.76;99233.77;4550307;63;1137302;-88
2021/01/25 08:49:18;;;;;;;29.30;14.37;;;;;;;0.66;86.77;99226.21;4673329;60;1136759;-88
2021/01/25 08:54:35;;;;;;;34.10;15.47;;;;;;;0.61;86.81;99230.38;4673994;61;1136744;-87
2021/01/25 08:59:43;;;;;;;47.90;20.83;;;;;;;0.59;86.89;99233.55;4647205;61;1136320;-88
2021/01/25 09:04:53;;;;;;;52.20;22.97;;;;;;;0.59;87.07;99234.85;4681408;61;1136292;-88
2021/01/25 09:09:59;;;;;;;32.67;14.70;;;;;;;0.57;87.11;99241.91;4692952;61;1136708;-88
2021/01/25 09:15:06;;;;;;;41.75;18.23;;;;;;;0.55;87.16;99247.65;4683827;61;1137023;-88
2021/01/25 09:20:13;;;;;;;35.97;16.67;;;;;;;0.59;87.22;99243.95;4747587;61;1136236;-88
2021/01/25 09:25:21;;;;;;;22.90;9.18;;;;;;;0.59;87.34;99249.16;4674102;61;1136906;-87
2021/01/25 09:30:28;;;;;;;24.40;9.47;;;;;;;0.60;87.44;99259.95;4675806;61;1134442;-88
2021/01/25 09:35:34;;;;;;;18.37;7.53;;;;;;;0.56;87.52;99253.69;4683620;61;1134835;-87
2021/01/25 09:40:40;;;;;;;34.97;13.13;;;;;;;0.53;87.62;99250.80;4691693;61;1134304;-88
2021/01/25 09:45:46;;;;;;;27.43;11.83;;;;;;;0.51;87.75;99253.94;4687120;61;1136341;-87
2021/01/25 09:50:51;;;;;;;16.63;7.93;;;;;;;0.53;87.84;99248.66;4677655;61;1136959;-88
2021/01/25 09:55:57;;;;;;;23.57;11.10;;;;;;;0.57;88.24;99251.01;4693486;61;1134217;-88
2021/01/25 10:01:05;;;;;;;21.07;9.83;;;;;;;0.58;88.00;99246.64;4671170;61;1139354;-88
2021/01/25 10:06:11;;;;;;;23.43;7.10;;;;;;;0.60;88.14;99251.30;4678198;61;1134492;-88
2021/01/25 10:11:17;;;;;;;26.53;11.50;;;;;;;0.60;88.26;99250.00;4685576;61;1134908;-87
2021/01/25 10:16:23;;;;;;;17.93;6.80;;;;;;;0.59;88.26;99257.42;4682321;61;1136513;-88
2021/01/25 10:21:29;;;;;;;17.43;8.27;;;;;;;0.64;88.32;99258.82;4546071;63;1134606;-87
2021/01/25 10:26:35;;;;;;;25.00;9.57;;;;;;;0.74;88.37;99255.25;4541736;62;1134323;-87
2021/01/25 10:31:40;;;;;;;15.43;7.57;;;;;;;0.76;88.09;99265.11;4519224;63;1134745;-88
2021/01/25 10:36:46;;;;;;;19.03;9.23;;;;;;;0.76;88.20;99275.52;4547416;62;1134731;-87
2021/01/25 10:41:51;;;;;;;17.87;8.57;;;;;;;0.75;88.08;99279.05;4537449;62;1135218;-88
2021/01/25 10:46:57;;;;;;;19.97;7.67;;;;;;;0.79;88.14;99275.31;4614675;62;1134235;-88
2021/01/25 10:52:03;;;;;;;46.07;17.63;;;;;;;0.85;88.05;99271.53;4562653;63;1134313;-88
2021/01/25 10:57:08;;;;;;;23.50;9.60;;;;;;;0.91;87.92;99280.30;4574829;62;1136635;-88
2021/01/25 11:02:14;;;;;;;23.40;10.72;;;;;;;0.95;87.82;99280.48;4565945;63;1134434;-88
2021/01/25 11:07:21;;;;;;;23.37;11.03;;;;;;;0.99;87.76;99280.22;4697772;61;1136549;-88
2021/01/25 11:12:26;;;;;;;13.70;6.60;;;;;;;1.01;87.66;99291.38;4669936;61;1136804;-87
2021/01/25 11:17:32;;;;;;;16.57;8.17;;;;;;;1.02;87.66;99288.32;4613677;61;1134340;-87
2021/01/25 11:22:38;;;;;;;11.27;5.73;;;;;;;1.05;87.64;99293.36;4552417;62;1134494;-88
2021/01/25 11:27:44;;;;;;;11.53;6.03;;;;;;;1.04;87.59;99295.58;4567469;63;1134646;-88
2021/01/25 11:32:49;;;;;;;10.67;6.63;;;;;;;0.98;87.51;99291.55;4599467;62;1134459;-88
2021/01/25 11:37:55;;;;;;;14.63;8.47;;;;;;;0.95;87.56;99296.09;4609812;62;1134287;-88
2021/01/25 11:43:00;;;;;;;18.03;8.50;;;;;;;0.90;87.76;99296.38;4600066;62;1134678;-88
2021/01/25 11:48:07;;;;;;;12.07;6.27;;;;;;;0.93;87.80;99298.78;4737638;61;1132189;-88
2021/01/25 11:53:14;;;;;;;12.80;5.87;;;;;;;0.95;87.76;99302.60;4683227;61;1134531;-88
2021/01/25 11:58:19;;;;;;;15.05;8.60;;;;;;;0.96;87.90;99296.01;4695557;61;1134532;-88
2021/01/25 12:03:25;;;;;;;16.10;7.50;;;;;;;0.97;87.83;99293.78;4662759;61;1134277;-88
2021/01/25 12:08:30;;;;;;;17.90;9.07;;;;;;;0.96;87.76;99290.80;4693559;61;1136064;-88
2021/01/25 12:13:36;;;;;;;11.33;7.13;;;;;;;0.96;87.51;99289.50;4679982;61;1135303;-89
2021/01/25 12:18:45;;;;;;;9.67;4.30;;;;;;;0.93;87.60;99298.78;4783707;61;21191;-89
2021/01/25 12:23:50;;;;;;;6.00;4.30;;;;;;;0.91;87.81;99298.52;4710575;61;1128042;-88
2021/01/25 12:28:56;;;;;;;4.67;3.43;;;;;;;0.89;87.82;99301.67;4682138;61;1132200;-88
2021/01/25 12:34:01;;;;;;;5.90;3.70;;;;;;;0.86;87.76;99311.79;4593839;62;1132130;-88
2021/01/25 12:39:07;;;;;;;9.33;5.03;;;;;;;0.84;87.63;99316.24;4614234;62;1132303;-89
2021/01/25 12:44:12;;;;;;;21.45;9.50;;;;;;;0.82;87.43;99315.48;4548392;62;1132332;-88
2021/01/25 12:49:20;;;;;;;11.67;6.17;;;;;;;0.84;87.45;99323.20;4490893;63;1134386;-88
2021/01/25 12:54:26;;;;;;;35.43;17.90;;;;;;;0.87;87.37;99328.25;4687673;60;1134318;-88
2021/01/25 12:59:32;;;;;;;10.03;6.12;;;;;;;0.93;87.28;99343.50;4692292;61;1136526;-89
2021/01/25 13:04:37;;;;;;;20.43;9.63;;;;;;;0.93;86.84;99341.73;4696020;61;1134517;-91
2021/01/25 13:09:43;;;;;;;95.87;36.93;;;;;;;0.92;86.93;99342.66;4640485;61;1134228;-88
2021/01/25 13:14:49;;;;;;;61.37;43.53;;;;;;;0.96;86.80;99345.93;4700424;61;1136394;-88
2021/01/25 13:19:54;;;;;;;60.57;46.83;;;;;;;0.96;86.84;99347.23;4730570;60;1136418;-88
2021/01/25 13:25:00;;;;;;;33.40;14.50;;;;;;;0.97;86.85;99341.94;4715167;61;1136729;-88
2021/01/25 13:30:07;;;;;;;27.80;12.23;;;;;;;1.00;86.64;99357.86;4699103;61;1136311;-88
2021/01/25 13:35:17;;;;;;;193.47;92.60;;;;;;;1.01;86.75;99363.44;4703041;60;1136303;-88
2021/01/25 13:40:27;;;;;;;74.40;42.50;;;;;;;1.02;86.62;99367.72;4708478;61;1138369;-89
2021/01/25 13:45:33;;;;;;;40.30;17.27;;;;;;;1.08;86.54;99367.81;4692856;61;1136831;-89
2021/01/25 13:50:40;;;;;;;53.47;25.73;;;;;;;1.08;86.63;99370.42;4706337;61;1136319;-89
2021/01/25 13:55:46;;;;;;;55.90;21.67;;;;;;;1.12;86.76;99375.84;4779300;61;1136543;-88
2021/01/25 14:00:52;;;;;;;224.47;152.00;;;;;;;1.17;86.78;99384.23;4671123;61;1136331;-88
2021/01/25 14:05:58;;;;;;;25.00;13.00;;;;;;;1.20;86.63;99386.67;4723675;61;1140480;-89
2021/01/25 14:11:04;;;;;;;23.20;10.37;;;;;;;1.18;86.61;99395.87;4602431;62;1136366;-88
2021/01/25 14:16:09;;;;;;;28.43;11.63;;;;;;;1.22;86.68;99405.16;4592777;60;1136330;-89
2021/01/25 14:21:15;;;;;;;27.80;11.70;;;;;;;1.21;86.65;99413.92;4730523;61;1136384;-89
2021/01/25 14:26:20;;;;;;;21.65;9.00;;;;;;;1.20;86.44;99416.62;4603511;61;1136740;-89
2021/01/25 14:31:27;;;;;;;10.88;5.80;;;;;;;1.20;86.45;99427.88;4642492;61;1134459;-89
2021/01/25 14:36:34;;;;;;;31.90;15.00;;;;;;;1.17;86.36;99432.41;4625752;61;1134380;-87
2021/01/25 14:41:40;;;;;;;27.90;13.63;;;;;;;1.18;86.42;99440.14;4633479;62;1137348;-91
2021/01/25 14:46:46;;;;;;;104.60;43.17;;;;;;;1.18;86.52;99449.25;4658299;62;1136813;-90
2021/01/25 14:51:53;;;;;;;77.27;32.53;;;;;;;1.20;86.45;99453.92;4637065;61;1138276;-89
2021/01/25 14:56:59;;;;;;;43.70;21.97;;;;;;;1.23;86.32;99459.39;4626357;61;1136641;-88
2021/01/25 15:02:05;;;;;;;33.87;19.80;;;;;;;1.18;86.28;99466.64;4641299;61;1137268;-89
2021/01/25 15:07:11;;;;;;;87.03;36.03;;;;;;;1.17;86.52;99477.98;4551772;62;1136891;-89
2021/01/25 15:12:16;;;;;;;38.08;21.65;;;;;;;1.17;86.52;99477.98;4621233;62;1136620;-91
2021/01/25 15:23:45;;;;;;;14.80;9.70;;;;;;;1.17;86.12;99491.00;4937719;58;21452;-88
2021/01/25 15:28:51;;;;;;;104.67;79.93;;;;;;;1.07;85.97;99491.95;4884005;59;1130316;-89
2021/01/25 15:33:56;;;;;;;16.80;9.73;;;;;;;1.01;85.95;99498.81;4848669;59;1138556;-89
2021/01/25 15:39:02;;;;;;;26.87;12.10;;;;;;;0.95;86.09;99506.48;4832057;59;1134634;-89
2021/01/25 15:44:08;;;;;;;19.65;10.15;;;;;;;0.90;86.14;99509.82;4842956;59;1136283;-89
2021/01/25 15:49:14;;;;;;;21.82;13.03;;;;;;;0.88;86.12;99515.57;4898645;59;1134128;-89
2021/01/25 15:54:19;;;;;;;21.13;10.97;;;;;;;0.83;86.17;99518.87;4836397;58;1137300;-90
2021/01/25 15:59:26;;;;;;;27.60;13.77;;;;;;;0.79;86.30;99529.05;4857226;59;1136389;-90
2021/01/25 16:04:31;;;;;;;20.03;9.97;;;;;;;0.77;86.41;99536.10;4937389;59;21166;-91
2021/01/25 16:09:37;;;;;;;17.37;8.90;;;;;;;0.77;86.41;99542.61;4827428;58;1130081;-90
2021/01/25 16:14:43;;;;;;;105.50;41.40;;;;;;;0.75;86.47;99541.88;4840430;59;1134265;-90
2021/01/25 16:19:49;;;;;;;32.57;15.53;;;;;;;0.75;86.56;99538.44;4888023;59;1138447;-90
2021/01/25 16:24:54;;;;;;;35.47;15.33;;;;;;;0.75;86.58;99539.73;4819231;59;1136324;-91
2021/01/25 16:30:00;;;;;;;107.60;45.73;;;;;;;0.75;86.47;99543.18;4811201;58;1137082;-90
2021/01/25 16:35:07;;;;;;;36.03;16.93;;;;;;;0.75;86.46;99549.69;4846570;59;1138939;-91
2021/01/25 16:40:13;;;;;;;761.60;325.33;;;;;;;0.74;86.53;99550.60;4795123;58;1136442;-91
2021/01/25 16:45:20;;;;;;;507.02;197.07;;;;;;;0.73;86.46;99554.59;4869203;59;1148316;-89
2021/01/25 16:50:26;;;;;;;229.17;84.37;;;;;;;0.74;86.47;99553.20;4818103;60;1140430;-90
2021/01/25 16:55:31;;;;;;;55.57;24.57;;;;;;;0.75;86.56;99554.89;4815308;59;1138761;-91
2021/01/25 17:00:37;;;;;;;40.47;15.43;;;;;;;0.76;86.45;99560.94;4853007;59;1136258;-92
2021/01/25 17:05:43;;;;;;;196.37;84.10;;;;;;;0.81;86.36;99564.95;4845937;59;1137136;-90
2021/01/25 17:10:49;;;;;;;180.10;68.73;;;;;;;0.80;86.34;99570.23;4838683;58;1138343;-90
2021/01/25 17:15:55;;;;;;;94.43;36.73;;;;;;;0.78;86.32;99571.62;4862419;59;1138159;-90
2021/01/25 17:21:00;;;;;;;114.90;45.97;;;;;;;0.77;86.24;99571.23;4807182;58;1136195;-90
2021/01/25 17:26:06;;;;;;;41.60;17.70;;;;;;;0.72;86.28;99581.06;4871555;59;1138531;-89
2021/01/25 17:31:12;;;;;;;45.13;17.97;;;;;;;0.70;86.34;99581.14;4838004;59;1136395;-90
2021/01/25 17:36:17;;;;;;;49.70;20.53;;;;;;;0.68;86.32;99581.68;4809680;59;1136317;-89
2021/01/25 17:41:23;;;;;;;45.80;22.00;;;;;;;0.67;86.43;99580.00;4821695;59;1136692;-89
2021/01/25 17:46:29;;;;;;;40.03;19.25;;;;;;;0.68;86.38;99582.98;4831203;58;1136273;-89
2021/01/25 17:51:35;;;;;;;31.25;13.48;;;;;;;0.68;86.29;99576.94;4849314;58;1137281;-89
2021/01/25 17:56:40;;;;;;;26.83;12.07;;;;;;;0.61;86.29;99576.40;4860583;59;1136404;-89
2021/01/25 18:01:46;;;;;;;29.33;11.60;;;;;;;0.60;86.36;99576.05;4841572;59;1136240;-90
2021/01/25 18:06:51;;;;;;;30.37;13.90;;;;;;;0.59;86.38;99582.17;4874575;59;1136209;-90
2021/01/25 18:11:57;;;;;;;94.77;42.83;;;;;;;0.56;86.44;99578.42;4832698;59;1136244;-89
2021/01/25 18:17:03;;;;;;;19.80;10.60;;;;;;;0.56;86.44;99573.22;4839582;58;1136854;-89
2021/01/25 18:22:08;;;;;;;15.70;7.70;;;;;;;0.56;86.39;99578.42;4844121;59;1136243;-89
2021/01/25 18:27:14;;;;;;;19.67;10.43;;;;;;;0.55;86.36;99579.80;4731062;60;1134103;-90
2021/01/25 18:32:20;;;;;;;23.30;12.30;;;;;;;0.52;86.35;99575.59;4690260;60;1183792;-91
2021/01/25 18:37:26;;;;;;;44.63;17.15;;;;;;;0.59;86.34;99590.44;4844345;58;1137156;-91
2021/01/25 18:42:32;;;;;;;43.10;21.13;;;;;;;0.63;86.39;99588.87;4863877;58;1137085;-90
2021/01/25 18:47:39;;;;;;;106.53;44.17;;;;;;;0.66;86.17;99587.42;4895234;59;1136465;-90
2021/01/25 18:52:52;;;;;;;38.53;15.70;;;;;;;0.73;86.08;99591.02;4836239;59;1138533;-91
2021/01/25 18:57:56;;;;;;;23.40;10.87;;;;;;;0.67;85.58;99596.91;4825718;58;1137200;-90
2021/01/25 19:03:02;;;;;;;14.47;8.73;;;;;;;0.66;85.61;99604.80;4833007;59;1136370;-89
2021/01/25 19:08:09;;;;;;;27.27;11.97;;;;;;;0.60;85.68;99605.13;4864913;58;1134610;-88
2021/01/25 19:13:14;;;;;;;24.73;11.33;;;;;;;0.58;85.79;99617.37;4822499;59;1136726;-89
2021/01/25 19:18:20;;;;;;;18.32;9.95;;;;;;;0.59;85.74;99611.25;4827252;59;1136160;-89
2021/01/25 19:23:26;;;;;;;18.10;9.87;;;;;;;0.51;85.61;99619.43;4842003;58;1134836;-89
2021/01/25 19:28:31;;;;;;;27.20;12.60;;;;;;;0.47;85.62;99620.95;4827026;59;1134195;-89
2021/01/25 19:33:37;;;;;;;21.62;12.33;;;;;;;0.42;85.61;99619.91;4797731;60;1136623;-88
2021/01/25 19:38:43;;;;;;;19.50;10.93;;;;;;;0.36;85.73;99628.00;4842123;59;1136506;-88
2021/01/25 19:43:49;;;;;;;17.93;11.37;;;;;;;0.37;85.72;99620.59;4835306;59;1136547;-89
2021/01/25 19:48:55;;;;;;;28.98;16.23;;;;;;;0.35;85.78;99632.82;4837119;59;1136408;-90
2021/01/25 19:54:01;;;;;;;54.47;31.93;;;;;;;0.39;85.77;99641.32;4771443;60;1136151;-88
2021/01/25 19:59:07;;;;;;;95.50;36.63;;;;;;;0.49;86.00;99649.87;4758348;60;1136606;-89
2021/01/25 20:04:12;;;;;;;66.03;31.43;;;;;;;0.54;86.07;99658.30;4859779;59;1136204;-88
2021/01/25 20:09:18;;;;;;;70.70;34.40;;;;;;;0.56;85.80;99666.03;4839786;59;1137082;-89
2021/01/25 20:14:24;;;;;;;75.23;35.67;;;;;;;0.63;85.84;99677.34;4849237;59;1136344;-89
2021/01/25 20:19:33;;;;;;;81.45;38.30;;;;;;;0.69;86.20;99675.74;4838036;58;1136335;-88
2021/01/25 20:24:38;;;;;;;38.73;15.63;;;;;;;0.68;85.91;99676.66;4844431;58;1136585;-89
2021/01/25 20:29:44;;;;;;;41.87;17.63;;;;;;;0.62;85.72;99683.92;4840811;59;1136264;-88
2021/01/25 20:34:50;;;;;;;35.27;16.23;;;;;;;0.51;85.89;99683.16;4844116;59;1136659;-88
2021/01/25 20:39:55;;;;;;;29.40;12.30;;;;;;;0.48;85.98;99692.88;4849570;59;1136285;-89
2021/01/25 20:45:01;;;;;;;39.07;19.20;;;;;;;0.44;86.17;99696.11;4878476;58;1136330;-89
2021/01/25 20:50:08;;;;;;;49.47;23.47;;;;;;;0.45;86.19;99693.05;4833146;58;1136426;-89
2021/01/25 20:55:14;;;;;;;37.47;17.87;;;;;;;0.48;86.30;99695.02;4832516;59;1136166;-88
2021/01/25 21:00:24;;;;;;;44.97;19.43;;;;;;;0.49;86.07;99695.86;4835644;59;1136759;-89
2021/01/25 21:05:30;;;;;;;49.13;20.70;;;;;;;0.48;85.95;99702.82;4830259;59;1136220;-88
2021/01/25 21:10:36;;;;;;;42.97;20.07;;;;;;;0.45;85.97;99708.66;4891697;59;1136317;-88
2021/01/25 21:15:45;;;;;;;31.65;16.12;;;;;;;0.44;85.97;99709.57;4828990;58;1136420;-88
2021/01/25 21:20:52;;;;;;;32.80;15.03;;;;;;;0.40;85.94;99714.53;4831227;59;1136570;-88
2021/01/25 21:25:58;;;;;;;36.50;18.03;;;;;;;0.35;85.79;99713.45;4855547;59;1136370;-88
2021/01/25 21:31:04;;;;;;;31.67;15.77;;;;;;;0.36;85.88;99712.53;4867612;59;1136316;-88
2021/01/25 21:36:10;;;;;;;31.40;16.12;;;;;;;0.34;85.82;99710.00;4904216;59;1134262;-89
2021/01/25 21:41:15;;;;;;;28.93;14.47;;;;;;;0.34;85.76;99717.80;4895453;58;1136365;-89
2021/01/25 21:46:21;;;;;;;26.53;13.93;;;;;;;0.35;85.69;99712.14;4875175;59;1136743;-88
2021/01/25 21:51:27;;;;;;;27.85;13.58;;;;;;;0.34;85.74;99717.80;4828093;59;1136763;-88
2021/01/25 21:56:32;;;;;;;32.37;15.30;;;;;;;0.35;85.56;99713.45;4829368;59;1136492;-88
2021/01/25 22:01:38;;;;;;;15.13;7.42;;;;;;;0.31;85.67;99715.80;4846520;59;1136249;-88
2021/01/25 22:06:43;;;;;;;40.13;19.50;;;;;;;0.30;85.69;99722.80;4826525;59;1135167;-88
2021/01/25 22:11:49;;;;;;;31.73;15.60;;;;;;;0.30;85.72;99729.75;4844095;59;1136242;-89
2021/01/25 22:16:55;;;;;;;30.03;15.33;;;;;;;0.27;85.73;99726.84;4832019;59;1136364;-89
2021/01/25 22:22:01;;;;;;;30.63;14.90;;;;;;;0.31;85.79;99742.66;4839679;59;1137200;-90
2021/01/25 22:27:07;;;;;;;37.77;16.60;;;;;;;0.32;85.82;99741.73;4823177;59;1136584;-89
2021/01/25 22:32:13;;;;;;;28.00;13.70;;;;;;;0.30;85.89;99742.30;4807369;59;1136266;-90
2021/01/25 22:37:19;;;;;;;28.47;15.38;;;;;;;0.30;85.84;99743.59;4817622;58;1136729;-90
2021/01/25 22:42:26;;;;;;;30.15;13.75;;;;;;;0.29;85.94;99746.27;4856509;58;1136778;-89
2021/01/25 22:47:32;;;;;;;26.83;13.73;;;;;;;0.20;86.01;99738.44;4821564;59;1136429;-89
2021/01/25 22:52:38;;;;;;;28.03;13.47;;;;;;;0.28;86.02;99754.98;4853603;59;1136367;-88
2021/01/25 22:57:49;;;;;;;26.13;13.90;;;;;;;0.25;86.13;99750.77;4874571;59;1136786;-90
2021/01/25 23:02:54;;;;;;;24.40;12.77;;;;;;;0.25;86.25;99749.47;4809041;59;1136689;-89
2021/01/25 23:08:01;;;;;;;25.33;13.43;;;;;;;0.27;86.30;99747.64;4869699;58;1136070;-89
2021/01/25 23:13:10;;;;;;;24.67;12.23;;;;;;;0.30;86.39;99747.95;4828362;59;1136180;-89
2021/01/25 23:18:26;;;;;;;15.83;9.77;;;;;;;0.33;86.32;99747.78;4854746;59;1136224;-89
2021/01/25 23:23:35;;;;;;;24.20;11.67;;;;;;;0.36;86.25;99751.55;4797501;59;1141104;-88
2021/01/25 23:28:42;;;;;;;21.73;10.40;;;;;;;0.33;86.36;99756.43;4824616;59;1136227;-89